Time;durP1;ratioP1;P1;durP2;ratioP2;P2;SDS_P1;SDS_P2;PMS_P1;PMS_P2;Temp;Humidity;BMP_temperature;BMP_pressure;BME280_temperature;BME280_humidity;BME280_pressure;Samples;Min_cycle;Max_cycle;Signal;HPM_P1;HPM_P2
2023/06/06 00:01:45;;;;;;;4.60;2.65;;;16.10;99.90;;;;;;5033925;28;20025;-48
2023/06/06 00:04:11;;;;;;;5.28;2.88;;;16.00;99.90;;;;;;5051902;28;20648;-50
2023/06/06 00:06:37;;;;;;;6.43;3.17;;;16.00;99.90;;;;;;5051747;28;20040;-50
2023/06/06 00:09:04;;;;;;;5.13;2.53;;;16.00;99.90;;;;;;5051981;28;20024;-48
2023/06/06 00:11:31;;;;;;;8.77;3.20;;;16.00;99.90;;;;;;5051470;28;20385;-49
2023/06/06 00:13:57;;;;;;;6.50;3.25;;;15.90;99.90;;;;;;5033676;28;20037;-49
2023/06/06 00:16:27;;;;;;;7.00;3.28;;;16.00;99.90;;;;;;5051645;28;20527;-49
2023/06/06 00:18:55;;;;;;;5.40;2.90;;;15.90;99.90;;;;;;5051147;28;20478;-51
2023/06/06 00:21:22;;;;;;;4.85;2.95;;;15.80;99.90;;;;;;5051251;28;20064;-51
2023/06/06 00:23:49;;;;;;;5.97;3.13;;;15.70;99.90;;;;;;5051707;28;20044;-50
2023/06/06 00:26:14;;;;;;;6.47;3.20;;;15.70;99.90;;;;;;5051371;28;20466;-50
2023/06/06 00:28:43;;;;;;;;;;;15.60;99.90;;;;;;5052267;28;20033;-47
2023/06/06 00:31:09;;;;;;;6.63;3.17;;;15.60;99.90;;;;;;5051195;28;19909;-47
2023/06/06 00:33:35;;;;;;;7.15;2.80;;;15.50;99.90;;;;;;5051205;28;20021;-49
2023/06/06 00:36:00;;;;;;;6.68;3.10;;;15.50;99.90;;;;;;5051609;28;20447;-47
2023/06/06 00:38:26;;;;;;;5.53;2.95;;;15.50;99.90;;;;;;5033439;28;20037;-51
2023/06/06 00:40:52;;;;;;;6.78;3.13;;;15.40;99.90;;;;;;5050986;28;20104;-49
2023/06/06 00:43:17;;;;;;;6.88;2.92;;;15.30;99.90;;;;;;5051075;28;20104;-49
2023/06/06 00:45:43;;;;;;;8.00;3.80;;;15.30;99.90;;;;;;5033064;28;20029;-47
2023/06/06 00:48:09;;;;;;;6.18;3.38;;;15.30;99.90;;;;;;5051180;28;20028;-47
2023/06/06 00:50:36;;;;;;;6.60;3.10;;;15.30;99.90;;;;;;5050834;28;20115;-47
2023/06/06 00:53:03;;;;;;;6.57;3.47;;;15.20;99.90;;;;;;5050868;28;20029;-48
2023/06/06 00:55:31;;;;;;;7.82;3.00;;;15.10;99.90;;;;;;5050921;28;20500;-48
2023/06/06 00:57:59;;;;;;;5.65;3.05;;;15.10;99.90;;;;;;5050965;28;20060;-49
2023/06/06 01:00:27;;;;;;;11.13;4.05;;;15.00;99.90;;;;;;5033040;28;20098;-50
2023/06/06 01:02:53;;;;;;;7.45;3.22;;;15.00;99.90;;;;;;5050665;28;20037;-46
2023/06/06 01:05:20;;;;;;;10.05;3.67;;;15.00;99.90;;;;;;5050680;28;20120;-49
2023/06/06 01:07:47;;;;;;;8.15;3.42;;;15.00;99.90;;;;;;5032763;28;20119;-49
2023/06/06 01:10:14;;;;;;;5.53;2.88;;;14.90;99.90;;;;;;5032836;28;20029;-47
2023/06/06 01:12:55;;;;;;;8.02;3.58;;;14.90;99.90;;;;;;5050592;28;20033;-48
2023/06/06 01:15:31;;;;;;;6.43;3.22;;;14.90;99.90;;;;;;5050781;28;20039;-49
2023/06/06 01:18:01;;;;;;;6.07;3.15;;;14.90;99.90;;;;;;5032865;28;20036;-47
2023/06/06 01:20:29;;;;;;;6.28;3.50;;;14.90;99.90;;;;;;5050412;28;20028;-48
2023/06/06 01:22:56;;;;;;;7.20;3.70;;;14.90;99.90;;;;;;5050549;28;20029;-48
2023/06/06 01:25:25;;;;;;;8.93;3.38;;;14.90;99.90;;;;;;5050493;28;20029;-47
2023/06/06 01:27:53;;;;;;;6.88;3.83;;;14.80;99.90;;;;;;5050491;28;20043;-49
2023/06/06 01:30:23;;;;;;;5.50;3.05;;;14.70;99.90;;;;;;5032490;28;20575;-49
2023/06/06 01:33:09;;;;;;;7.63;3.38;;;14.70;99.90;;;;;;5032349;28;20056;-49
2023/06/06 01:35:50;;;;;;;8.13;3.42;;;14.60;99.90;;;;;;5050389;28;20025;-48
2023/06/06 01:38:19;;;;;;;7.43;3.35;;;14.60;99.90;;;;;;5032737;28;20033;-49
2023/06/06 01:40:47;;;;;;;6.70;3.33;;;14.60;99.90;;;;;;5032554;28;20029;-47
2023/06/06 01:43:16;;;;;;;7.15;3.40;;;14.60;99.90;;;;;;5050240;28;20039;-49
2023/06/06 01:45:45;;;;;;;7.18;3.42;;;14.50;99.90;;;;;;5032463;28;20059;-48
2023/06/06 01:48:12;;;;;;;5.35;2.97;;;14.50;99.90;;;;;;5032472;28;20101;-47
2023/06/06 01:50:38;;;;;;;5.78;3.20;;;14.50;99.90;;;;;;5050222;28;20037;-49
2023/06/06 01:53:04;;;;;;;6.95;3.72;;;14.50;99.90;;;;;;5050253;28;20037;-47
2023/06/06 01:55:29;;;;;;;7.85;3.97;;;14.40;99.90;;;;;;5050344;28;20032;-46
2023/06/06 01:57:57;;;;;;;8.25;3.97;;;14.30;99.90;;;;;;5032386;28;20029;-47
2023/06/06 02:00:23;;;;;;;8.10;3.25;;;14.30;99.90;;;;;;5032440;28;20036;-48
2023/06/06 02:02:48;;;;;;;7.18;3.63;;;14.30;99.90;;;;;;5032372;28;20032;-48
2023/06/06 02:05:14;;;;;;;7.78;3.67;;;14.30;99.90;;;;;;5050115;28;20051;-48
2023/06/06 02:07:41;;;;;;;7.72;3.63;;;14.20;99.90;;;;;;5050322;28;20039;-49
2023/06/06 02:10:07;;;;;;;7.72;3.55;;;14.20;99.90;;;;;;5032349;28;20436;-47
2023/06/06 02:12:36;;;;;;;9.55;3.78;;;14.20;99.90;;;;;;5031969;28;20025;-48
2023/06/06 02:15:02;;;;;;;9.52;4.00;;;14.20;99.90;;;;;;5032201;28;20082;-49
2023/06/06 02:17:29;;;;;;;7.78;3.70;;;14.20;99.90;;;;;;5032298;28;20033;-52
2023/06/06 02:19:55;;;;;;;8.77;4.00;;;14.10;99.90;;;;;;5050378;28;20036;-48
2023/06/06 02:22:20;;;;;;;8.32;3.72;;;14.20;99.90;;;;;;5050411;28;20056;-47
2023/06/06 02:24:49;;;;;;;7.93;3.70;;;14.10;99.90;;;;;;5050311;28;20040;-49
2023/06/06 02:27:15;;;;;;;9.07;3.30;;;14.10;99.90;;;;;;5032118;28;20032;-48
2023/06/06 02:29:41;;;;;;;6.28;3.03;;;14.10;99.90;;;;;;5050286;28;20029;-50
2023/06/06 02:32:07;;;;;;;11.05;3.53;;;14.00;99.90;;;;;;5031911;28;20029;-51
2023/06/06 02:34:35;;;;;;;7.13;3.20;;;14.00;99.90;;;;;;5050491;28;20385;-51
2023/06/06 02:37:06;;;;;;;7.95;3.55;;;13.90;99.90;;;;;;5032130;28;20025;-52
2023/06/06 02:39:35;;;;;;;8.68;4.03;;;13.90;99.90;;;;;;5032331;28;20110;-52
2023/06/06 02:42:03;;;;;;;7.88;3.55;;;13.90;99.90;;;;;;5032329;28;20040;-49
2023/06/06 02:44:30;;;;;;;8.60;3.75;;;13.90;99.90;;;;;;5053770;28;20032;-49
2023/06/06 02:46:57;;;;;;;7.65;3.58;;;13.80;99.90;;;;;;5035655;28;20398;-51
2023/06/06 02:49:23;;;;;;;10.50;4.00;;;13.70;99.90;;;;;;5035843;28;20029;-52
2023/06/06 02:51:49;;;;;;;6.75;3.42;;;13.70;99.90;;;;;;5053132;28;20052;-53
2023/06/06 02:54:14;;;;;;;7.47;3.38;;;13.70;99.90;;;;;;5035458;28;20099;-53
2023/06/06 02:56:40;;;;;;;8.00;3.92;;;13.70;99.90;;;;;;5035468;28;20079;-52
2023/06/06 02:59:07;;;;;;;10.20;4.18;;;13.60;99.90;;;;;;5053412;28;20029;-50
2023/06/06 03:01:35;;;;;;;9.07;4.20;;;13.60;99.90;;;;;;5034874;28;20033;-54
2023/06/06 03:04:01;;;;;;;8.13;3.60;;;13.60;99.90;;;;;;5053180;28;20436;-54
2023/06/06 03:06:28;;;;;;;6.88;3.63;;;13.60;99.90;;;;;;5034978;28;20078;-51
2023/06/06 03:08:57;;;;;;;7.97;3.75;;;13.60;99.90;;;;;;5053331;28;20400;-51
2023/06/06 03:11:25;;;;;;;8.40;4.47;;;13.60;99.90;;;;;;5034645;28;20502;-52
2023/06/06 03:13:52;;;;;;;9.48;3.75;;;13.50;99.90;;;;;;5034718;28;20074;-50
2023/06/06 03:16:18;;;;;;;8.50;3.80;;;13.50;99.90;;;;;;5034675;28;20112;-51
2023/06/06 03:18:46;;;;;;;8.57;3.90;;;13.50;99.90;;;;;;5032322;28;20383;-53
2023/06/06 03:21:14;;;;;;;8.82;3.90;;;13.40;99.90;;;;;;5027399;28;20103;-51
2023/06/06 03:23:43;;;;;;;8.80;3.58;;;13.40;99.90;;;;;;5014907;28;20033;-49
2023/06/06 03:26:10;;;;;;;7.95;3.85;;;13.40;99.90;;;;;;5023722;28;20071;-53
2023/06/06 03:28:36;;;;;;;9.30;4.00;;;13.40;99.90;;;;;;5024309;28;20378;-53
2023/06/06 03:31:06;;;;;;;6.18;3.50;;;13.40;99.90;;;;;;5024551;28;20064;-52
2023/06/06 03:33:37;;;;;;;7.90;4.15;;;13.40;99.90;;;;;;5025785;28;20036;-52
2023/06/06 03:36:06;;;;;;;10.40;4.32;;;13.30;99.90;;;;;;5023677;28;20025;-51
2023/06/06 03:38:32;;;;;;;9.65;3.78;;;13.30;99.90;;;;;;5041611;28;20068;-52
2023/06/06 03:40:58;;;;;;;8.40;4.05;;;13.30;99.90;;;;;;5012242;28;20164;-51
2023/06/06 03:43:24;;;;;;;11.20;4.28;;;13.30;99.90;;;;;;5013581;28;20043;-51
2023/06/06 03:45:50;;;;;;;10.75;4.35;;;13.20;99.90;;;;;;5019874;28;20120;-48
2023/06/06 03:48:17;;;;;;;7.45;3.88;;;13.20;99.90;;;;;;5025236;28;20380;-52
2023/06/06 03:50:43;;;;;;;8.27;4.20;;;13.20;99.90;;;;;;5022789;28;20032;-49
2023/06/06 03:53:09;;;;;;;7.67;4.20;;;13.20;99.90;;;;;;5024141;28;20465;-48
2023/06/06 03:55:37;;;;;;;10.43;3.93;;;13.20;99.90;;;;;;5020812;28;20028;-48
2023/06/06 03:58:03;;;;;;;11.10;4.00;;;13.20;99.90;;;;;;5032383;28;20048;-48
2023/06/06 04:00:31;;;;;;;9.27;4.30;;;13.20;99.90;;;;;;5030270;28;20142;-48
2023/06/06 04:02:57;;;;;;;9.50;3.80;;;13.10;99.90;;;;;;5049470;28;20480;-49
2023/06/06 04:05:23;;;;;;;12.43;5.13;;;13.10;99.90;;;;;;5040783;28;20101;-48
2023/06/06 04:07:49;;;;;;;9.83;4.37;;;13.10;99.90;;;;;;5011902;28;20127;-48
2023/06/06 04:10:15;;;;;;;9.57;3.78;;;13.10;99.90;;;;;;5011927;28;20549;-48
2023/06/06 04:12:40;;;;;;;8.40;4.07;;;13.20;99.90;;;;;;5040724;28;20071;-48
2023/06/06 04:15:10;;;;;;;9.55;4.28;;;13.20;99.90;;;;;;5018742;28;20079;-49
2023/06/06 04:17:36;;;;;;;13.13;4.35;;;13.20;99.90;;;;;;5040016;28;20374;-50
2023/06/06 04:20:04;;;;;;;8.43;4.07;;;13.20;99.90;;;;;;5042748;28;20045;-53
2023/06/06 04:22:30;;;;;;;9.30;4.43;;;13.20;99.90;;;;;;5015091;28;20033;-48
2023/06/06 04:24:56;;;;;;;10.60;4.05;;;13.10;99.90;;;;;;5026716;28;20029;-47
2023/06/06 04:27:23;;;;;;;8.57;3.93;;;13.10;99.90;;;;;;5019659;28;20594;-47
2023/06/06 04:29:53;;;;;;;9.13;4.60;;;13.10;99.90;;;;;;5016886;28;20114;-47
2023/06/06 04:32:19;;;;;;;9.20;4.47;;;13.10;99.90;;;;;;5040361;28;20036;-48
2023/06/06 04:34:46;;;;;;;9.83;4.13;;;13.20;99.90;;;;;;5027382;28;20434;-49
2023/06/06 04:37:14;;;;;;;9.17;4.60;;;13.20;99.90;;;;;;5013971;28;20331;-48
2023/06/06 04:39:41;;;;;;;10.88;4.13;;;13.20;99.90;;;;;;5029831;28;20355;-48
2023/06/06 04:42:07;;;;;;;8.80;4.22;;;13.20;99.90;;;;;;5020485;28;20421;-48
2023/06/06 04:44:34;;;;;;;9.18;4.50;;;13.30;99.90;;;;;;5021853;28;20320;-47
2023/06/06 04:47:01;;;;;;;9.33;4.33;;;13.20;99.90;;;;;;5043050;28;20026;-49
2023/06/06 04:49:28;;;;;;;10.40;4.57;;;13.30;99.90;;;;;;5027367;28;20025;-48
2023/06/06 04:51:59;;;;;;;10.47;4.53;;;13.30;99.90;;;;;;5018686;28;20125;-49
2023/06/06 04:54:25;;;;;;;11.27;5.18;;;13.40;99.90;;;;;;5044886;28;20083;-47
2023/06/06 04:56:51;;;;;;;11.02;4.40;;;13.40;99.90;;;;;;5040409;28;20024;-48
2023/06/06 04:59:22;;;;;;;8.18;4.07;;;13.50;99.90;;;;;;5040139;28;20065;-48
2023/06/06 05:01:48;;;;;;;11.40;4.68;;;13.50;99.90;;;;;;5039698;28;20112;-49
2023/06/06 05:04:15;;;;;;;9.25;4.63;;;13.40;99.90;;;;;;5033297;28;20072;-48
2023/06/06 05:06:41;;;;;;;9.88;4.43;;;13.50;99.90;;;;;;5044675;28;20075;-47
2023/06/06 05:09:07;;;;;;;9.27;4.50;;;13.50;99.90;;;;;;5035195;28;20058;-47
2023/06/06 05:11:36;;;;;;;8.82;4.20;;;13.60;99.90;;;;;;5036530;28;20039;-50
2023/06/06 05:14:03;;;;;;;9.52;4.30;;;13.60;99.90;;;;;;5028789;28;20017;-49
2023/06/06 05:16:28;;;;;;;10.85;4.30;;;13.70;99.90;;;;;;5036944;28;20120;-50
2023/06/06 05:18:54;;;;;;;8.13;4.28;;;13.80;99.90;;;;;;5036646;28;20017;-47
2023/06/06 05:21:21;;;;;;;9.52;4.80;;;13.80;99.90;;;;;;5044217;28;20043;-48
2023/06/06 05:23:46;;;;;;;9.02;4.18;;;13.90;99.90;;;;;;5044847;28;20033;-48
2023/06/06 05:26:12;;;;;;;9.02;4.18;;;13.90;99.90;;;;;;5036714;28;20489;-47
2023/06/06 05:28:39;;;;;;;8.15;4.40;;;14.00;99.90;;;;;;5039327;28;20034;-47
2023/06/06 05:31:07;;;;;;;10.13;4.35;;;14.10;99.90;;;;;;5039757;28;20055;-51
2023/06/06 05:33:33;;;;;;;9.38;4.30;;;14.20;99.90;;;;;;5039653;28;20055;-49
2023/06/06 05:36:00;;;;;;;8.88;4.03;;;14.20;99.90;;;;;;5033535;28;20090;-48
2023/06/06 05:38:26;;;;;;;8.85;4.05;;;14.30;99.90;;;;;;5039750;28;20029;-52
2023/06/06 05:40:52;;;;;;;8.75;4.22;;;14.40;99.90;;;;;;5044644;28;20033;-51
2023/06/06 05:43:18;;;;;;;9.57;4.15;;;14.30;99.90;;;;;;5040015;28;20076;-50
2023/06/06 05:45:44;;;;;;;9.43;4.20;;;14.40;99.90;;;;;;5039028;28;20025;-50
2023/06/06 05:48:09;;;;;;;9.25;4.43;;;14.40;99.90;;;;;;5041839;28;20262;-50
2023/06/06 05:50:35;;;;;;;10.20;4.60;;;14.40;99.90;;;;;;5047595;28;20022;-51
2023/06/06 05:53:02;;;;;;;9.35;4.35;;;14.50;99.90;;;;;;5042638;28;20382;-48
2023/06/06 05:55:35;;;;;;;8.32;4.35;;;14.50;99.90;;;;;;5034007;28;20614;-50
2023/06/06 05:58:03;;;;;;;10.63;4.78;;;14.60;99.90;;;;;;5035169;28;20098;-49
2023/06/06 06:00:30;;;;;;;7.55;3.88;;;14.70;99.90;;;;;;5028746;28;20187;-49
2023/06/06 06:02:57;;;;;;;11.80;5.30;;;14.80;99.90;;;;;;5042973;28;20030;-50
2023/06/06 06:05:28;;;;;;;10.50;4.40;;;14.90;99.90;;;;;;5044152;28;20118;-48
2023/06/06 06:08:02;;;;;;;9.10;4.43;;;15.00;99.90;;;;;;5034079;28;20056;-54
2023/06/06 06:10:38;;;;;;;10.82;4.18;;;15.10;99.90;;;;;;5039197;28;20028;-49
2023/06/06 06:13:05;;;;;;;8.95;4.53;;;15.10;99.90;;;;;;5035659;28;20034;-49
2023/06/06 06:15:32;;;;;;;10.05;4.65;;;15.10;99.90;;;;;;5038288;28;20037;-49
2023/06/06 06:17:58;;;;;;;10.75;4.75;;;15.10;99.90;;;;;;5037440;28;20025;-48
2023/06/06 06:20:24;;;;;;;11.23;4.45;;;15.20;99.90;;;;;;5050627;28;20029;-52
2023/06/06 06:22:50;;;;;;;10.05;5.13;;;15.30;99.90;;;;;;5045970;28;20043;-49
2023/06/06 06:25:16;;;;;;;8.55;3.88;;;15.40;99.90;;;;;;5050751;28;20415;-49
2023/06/06 06:27:44;;;;;;;10.50;5.13;;;15.50;99.90;;;;;;5048479;28;20042;-49
2023/06/06 06:30:11;;;;;;;9.30;4.65;;;15.60;99.90;;;;;;5034500;28;20052;-51
2023/06/06 06:32:38;;;;;;;9.35;4.18;;;15.80;99.90;;;;;;5041341;28;20052;-50
2023/06/06 06:35:05;;;;;;;10.48;4.10;;;15.80;99.90;;;;;;5039028;28;20382;-50
2023/06/06 06:37:36;;;;;;;11.82;4.75;;;15.80;99.90;;;;;;5041356;28;20040;-48
2023/06/06 06:40:05;;;;;;;10.75;4.80;;;15.90;99.90;;;;;;5051152;28;20107;-51
2023/06/06 06:42:30;;;;;;;10.57;5.28;;;16.10;99.90;;;;;;5048654;28;20044;-53
2023/06/06 06:45:12;;;;;;;8.50;4.95;;;16.10;99.90;;;;;;5015359;28;20037;-51
2023/06/06 06:47:38;;;;;;;10.47;4.80;;;16.20;99.90;;;;;;5042565;28;20116;-50
2023/06/06 06:50:05;;;;;;;9.55;5.30;;;16.30;99.90;;;;;;5036783;28;20440;-50
2023/06/06 06:52:35;;;;;;;10.43;4.38;;;16.50;99.90;;;;;;5052722;28;20129;-50
2023/06/06 06:55:04;;;;;;;8.80;4.45;;;16.60;99.90;;;;;;5048772;28;20025;-54
2023/06/06 06:57:30;;;;;;;9.70;4.82;;;16.70;99.90;;;;;;5052776;28;20048;-54
2023/06/06 06:59:56;;;;;;;9.73;4.57;;;16.80;99.90;;;;;;5052687;28;20425;-54
2023/06/06 07:02:27;;;;;;;10.82;5.45;;;16.90;99.90;;;;;;5052014;28;20116;-51
2023/06/06 07:04:59;;;;;;;12.57;3.90;;;16.90;99.90;;;;;;5049737;28;20458;-52
2023/06/06 07:07:25;;;;;;;7.35;3.90;;;17.00;99.90;;;;;;5034684;28;20044;-51
2023/06/06 07:09:54;;;;;;;9.93;4.55;;;17.00;99.90;;;;;;5041940;28;20120;-53
2023/06/06 07:12:20;;;;;;;10.07;4.53;;;17.10;99.90;;;;;;5033284;28;20362;-51
2023/06/06 07:14:46;;;;;;;9.13;4.78;;;17.20;99.90;;;;;;5020608;28;20453;-50
2023/06/06 07:17:15;;;;;;;10.50;4.90;;;17.30;99.90;;;;;;5038968;28;20022;-49
2023/06/06 07:19:42;;;;;;;11.30;5.43;;;17.40;99.90;;;;;;5015258;28;20121;-53
2023/06/06 07:22:08;;;;;;;11.88;5.18;;;17.50;99.90;;;;;;5042161;28;20067;-48
2023/06/06 07:24:34;;;;;;;9.82;4.47;;;17.50;99.90;;;;;;5033541;28;20034;-49
2023/06/06 07:27:01;;;;;;;10.32;4.20;;;17.60;99.90;;;;;;5025743;28;20032;-51
2023/06/06 07:29:28;;;;;;;8.90;4.45;;;18.00;99.90;;;;;;5042272;28;20147;-49
2023/06/06 07:31:54;;;;;;;10.60;4.50;;;18.40;99.90;;;;;;5050137;28;20037;-49
2023/06/06 07:34:21;;;;;;;9.13;4.53;;;18.60;99.90;;;;;;5034337;28;20462;-51
2023/06/06 07:36:47;;;;;;;10.43;4.38;;;18.70;99.90;;;;;;5041989;28;20112;-49
2023/06/06 07:39:13;;;;;;;8.38;4.70;;;18.70;99.90;;;;;;5042076;28;20021;-48
2023/06/06 07:41:39;;;;;;;10.60;4.38;;;18.70;99.90;;;;;;5041132;28;20028;-50
2023/06/06 07:44:05;;;;;;;7.97;4.22;;;18.70;99.90;;;;;;5044421;28;20041;-50
2023/06/06 07:46:31;;;;;;;10.57;5.18;;;18.70;99.90;;;;;;5031305;28;20457;-53
2023/06/06 07:48:58;;;;;;;11.10;4.45;;;18.70;99.90;;;;;;5045310;28;20029;-51
2023/06/06 07:51:25;;;;;;;10.82;5.38;;;18.70;99.90;;;;;;5046275;28;20021;-51
2023/06/06 07:53:52;;;;;;;10.80;5.25;;;18.80;99.90;;;;;;5032134;28;20533;-54
2023/06/06 07:56:18;;;;;;;11.07;4.55;;;18.90;99.90;;;;;;5022828;28;20478;-54
2023/06/06 07:58:54;;;;;;;10.10;4.93;;;18.90;99.90;;;;;;5040775;28;20029;-51
2023/06/06 08:01:23;;;;;;;10.93;4.80;;;18.90;99.90;;;;;;5021458;28;20028;-54
2023/06/06 08:03:50;;;;;;;9.95;5.10;;;19.00;99.90;;;;;;5049860;28;20037;-54
2023/06/06 08:06:27;;;;;;;10.10;4.43;;;18.90;99.90;;;;;;5037734;28;20029;-52
2023/06/06 08:08:53;;;;;;;11.30;5.22;;;18.90;99.90;;;;;;5038491;28;20076;-52
2023/06/06 08:11:19;;;;;;;12.70;5.45;;;18.90;99.90;;;;;;5037674;28;20041;-51
2023/06/06 08:13:45;;;;;;;12.27;5.28;;;19.00;99.90;;;;;;5037395;28;20460;-53
2023/06/06 08:16:11;;;;;;;10.88;5.45;;;19.00;99.90;;;;;;5026927;28;20021;-49
2023/06/06 08:18:40;;;;;;;10.07;4.75;;;19.00;99.90;;;;;;5015969;28;20034;-50
2023/06/06 08:21:06;;;;;;;;;;;19.10;99.90;;;;;;5040925;28;20572;-51
2023/06/06 08:23:33;;;;;;;9.00;4.38;;;19.10;99.90;;;;;;5039317;28;19999;-50
2023/06/06 08:26:00;;;;;;;13.75;5.65;;;19.20;99.90;;;;;;5034511;28;20029;-52
2023/06/06 08:28:26;;;;;;;10.27;5.38;;;19.30;99.90;;;;;;5045649;28;20033;-52
2023/06/06 08:30:52;;;;;;;10.02;5.13;;;19.30;99.90;;;;;;5046175;28;20056;-51
2023/06/06 08:33:19;;;;;;;8.35;4.63;;;19.40;99.90;;;;;;5040244;28;20028;-49
2023/06/06 08:35:46;;;;;;;9.73;4.47;;;19.50;99.90;;;;;;5037966;28;20520;-49
2023/06/06 08:38:11;;;;;;;8.50;4.70;;;19.50;99.90;;;;;;5038220;28;20389;-50
2023/06/06 08:40:38;;;;;;;10.82;5.07;;;19.60;99.90;;;;;;5044598;28;20029;-54
2023/06/06 08:43:05;;;;;;;12.00;4.80;;;19.60;99.90;;;;;;5039009;28;20072;-51
2023/06/06 08:45:32;;;;;;;15.88;4.72;;;19.60;99.90;;;;;;5043829;28;20040;-49
2023/06/06 08:48:04;;;;;;;9.77;4.30;;;19.60;99.90;;;;;;5035894;28;20107;-48
2023/06/06 08:50:30;;;;;;;8.88;5.07;;;19.60;99.90;;;;;;5039863;28;20336;-51
2023/06/06 08:52:56;;;;;;;10.13;4.03;;;19.70;99.90;;;;;;5037255;28;20037;-50
2023/06/06 08:55:22;;;;;;;10.95;4.70;;;19.90;99.90;;;;;;5037618;28;20026;-51
2023/06/06 08:57:50;;;;;;;9.98;4.45;;;19.90;99.90;;;;;;5039303;28;20136;-50
2023/06/06 09:00:21;;;;;;;8.02;4.40;;;20.00;99.90;;;;;;5041141;28;20104;-52
2023/06/06 09:02:47;;;;;;;10.80;4.97;;;20.10;99.90;;;;;;5044443;28;20514;-50
2023/06/06 09:05:16;;;;;;;11.10;4.45;;;20.10;99.90;;;;;;5036463;28;20061;-52
2023/06/06 09:07:42;;;;;;;8.63;4.53;;;20.10;99.90;;;;;;5039180;28;20041;-54
2023/06/06 09:10:08;;;;;;;7.43;4.10;;;20.20;99.90;;;;;;5041278;28;20048;-53
2023/06/06 09:12:41;;;;;;;8.20;3.60;;;20.20;99.90;;;;;;5035457;28;20419;-53
2023/06/06 09:15:08;;;;;;;11.57;4.82;;;20.30;99.90;;;;;;5041649;28;20063;-52
2023/06/06 09:17:37;;;;;;;9.52;4.32;;;20.30;99.90;;;;;;5038008;28;20036;-49
2023/06/06 09:20:11;;;;;;;9.95;4.13;;;20.40;99.90;;;;;;5042261;28;20111;-54
2023/06/06 09:22:42;;;;;;;10.13;4.53;;;20.50;99.90;;;;;;5039341;28;20030;-49
2023/06/06 09:25:25;;;;;;;7.65;4.20;;;20.60;99.90;;;;;;5048137;28;20482;-50
2023/06/06 09:27:59;;;;;;;7.78;3.97;;;20.60;99.90;;;;;;5038934;28;20113;-51
2023/06/06 09:30:26;;;;;;;9.18;4.43;;;20.80;99.90;;;;;;5039225;28;20174;-51
2023/06/06 09:32:52;;;;;;;8.45;4.47;;;20.90;99.90;;;;;;5036288;28;20433;-50
2023/06/06 09:35:19;;;;;;;8.65;4.47;;;21.00;99.90;;;;;;5043924;28;20025;-49
2023/06/06 09:37:46;;;;;;;8.45;3.80;;;21.10;99.90;;;;;;5032517;28;20017;-51
2023/06/06 09:40:17;;;;;;;8.45;4.30;;;21.10;99.90;;;;;;5047028;28;20099;-50
2023/06/06 09:42:46;;;;;;;8.45;4.60;;;21.10;99.40;;;;;;5037199;28;20029;-49
2023/06/06 09:45:17;;;;;;;7.70;3.63;;;21.10;99.60;;;;;;5036151;28;20566;-53
2023/06/06 09:47:44;;;;;;;11.88;6.40;;;21.10;99.90;;;;;;5044270;28;20116;-49
2023/06/06 09:50:11;;;;;;;7.47;4.20;;;21.20;99.70;;;;;;5034261;28;20466;-50
2023/06/06 09:52:38;;;;;;;8.15;4.50;;;21.20;99.10;;;;;;5021987;28;20083;-50
2023/06/06 09:55:11;;;;;;;9.25;4.40;;;21.30;99.30;;;;;;5037199;28;20119;-51
2023/06/06 09:57:39;;;;;;;8.15;4.13;;;21.30;98.90;;;;;;5049022;28;20338;-54
2023/06/06 10:00:10;;;;;;;8.57;4.00;;;21.40;99.20;;;;;;5045682;28;20338;-50
2023/06/06 10:02:43;;;;;;;6.78;3.35;;;21.30;98.80;;;;;;5043895;28;20494;-50
2023/06/06 10:05:12;;;;;;;8.05;4.00;;;21.40;99.70;;;;;;5038375;28;20458;-50
2023/06/06 10:07:44;;;;;;;7.40;4.07;;;21.50;98.10;;;;;;5049946;28;20482;-49
2023/06/06 10:10:16;;;;;;;8.18;3.42;;;21.50;97.60;;;;;;5043585;28;20033;-51
2023/06/06 10:12:43;;;;;;;6.25;3.30;;;21.50;98.60;;;;;;5043206;28;20047;-50
2023/06/06 10:15:11;;;;;;;8.68;3.45;;;21.70;99.40;;;;;;5037197;28;20100;-49
2023/06/06 10:17:40;;;;;;;7.83;3.80;;;21.80;98.10;;;;;;5041464;28;20425;-52
2023/06/06 10:20:09;;;;;;;6.63;3.70;;;21.90;97.30;;;;;;5043075;28;20501;-49
2023/06/06 10:22:35;;;;;;;;;;;21.80;97.40;;;;;;5025375;28;20033;-50
2023/06/06 10:25:07;;;;;;;7.47;3.38;;;21.80;98.40;;;;;;5043258;28;19908;-51
2023/06/06 10:28:13;;;;;;;4.82;2.75;;;21.90;98.30;;;;;;5049858;28;20025;-49
2023/06/06 10:30:45;;;;;;;5.80;3.10;;;22.00;98.00;;;;;;5037621;28;20049;-48
2023/06/06 10:33:22;;;;;;;6.32;3.22;;;22.20;97.70;;;;;;5039576;28;20447;-49
2023/06/06 10:35:53;;;;;;;5.25;2.80;;;22.20;96.90;;;;;;5039234;28;20556;-52
2023/06/06 10:38:19;;;;;;;6.57;3.28;;;22.20;97.10;;;;;;5047271;28;20035;-50
2023/06/06 10:40:52;;;;;;;4.93;3.03;;;22.40;98.10;;;;;;5021226;28;20591;-49
2023/06/06 10:43:42;;;;;;;5.85;2.88;;;22.50;97.70;;;;;;5039825;28;20136;-52
2023/06/06 10:46:08;;;;;;;5.47;3.25;;;22.60;97.50;;;;;;5027607;28;20079;-50
2023/06/06 10:48:40;;;;;;;7.43;3.15;;;22.70;96.50;;;;;;5041319;28;20056;-51
2023/06/06 10:51:22;;;;;;;6.75;3.20;;;22.70;95.90;;;;;;5038849;28;20029;-49
2023/06/06 10:54:15;;;;;;;6.40;2.70;;;22.80;96.30;;;;;;5039135;28;20096;-53
2023/06/06 10:56:59;;;;;;;6.30;2.95;;;22.90;95.10;;;;;;5033227;28;20041;-51
2023/06/06 10:59:31;;;;;;;5.28;3.00;;;23.00;94.90;;;;;;5050239;28;20083;-52
2023/06/06 11:01:58;;;;;;;6.53;2.72;;;23.10;94.90;;;;;;5050791;28;20415;-52
2023/06/06 11:04:26;;;;;;;8.07;3.58;;;23.10;94.40;;;;;;5034501;28;20030;-51
2023/06/06 11:06:56;;;;;;;7.40;2.90;;;23.00;93.80;;;;;;5041667;28;20457;-52
2023/06/06 11:09:25;;;;;;;6.93;2.67;;;23.10;94.60;;;;;;5042608;28;20033;-49
2023/06/06 11:12:20;;;;;;;6.60;3.00;;;23.20;94.20;;;;;;5041302;28;20512;-50
2023/06/06 11:15:01;;;;;;;6.90;2.78;;;23.30;93.40;;;;;;5025827;28;20493;-48
2023/06/06 11:17:49;;;;;;;5.55;2.55;;;23.30;93.40;;;;;;5034369;28;20026;-49
2023/06/06 11:20:20;;;;;;;4.00;2.28;;;23.30;93.40;;;;;;5039376;28;20461;-51
2023/06/06 11:22:51;;;;;;;5.43;3.00;;;23.30;92.90;;;;;;5033987;28;20486;-51
2023/06/06 11:25:21;;;;;;;6.18;2.90;;;23.40;92.80;;;;;;5042306;28;20099;-49
2023/06/06 11:27:49;;;;;;;6.70;2.92;;;23.60;92.80;;;;;;5041521;28;20505;-48
2023/06/06 11:30:15;;;;;;;5.90;2.80;;;23.70;92.60;;;;;;5041597;28;20562;-50
2023/06/06 11:32:41;;;;;;;4.15;2.40;;;23.80;92.90;;;;;;5044789;28;20524;-49
2023/06/06 11:35:13;;;;;;;4.07;2.45;;;23.90;92.10;;;;;;5044710;28;20025;-49
2023/06/06 11:37:40;;;;;;;3.67;2.50;;;24.00;91.70;;;;;;5042067;28;20389;-50
2023/06/06 11:40:09;;;;;;;4.68;2.53;;;24.10;91.20;;;;;;5042527;28;20049;-48
2023/06/06 11:42:35;;;;;;;5.13;2.47;;;24.10;91.20;;;;;;5032934;28;20033;-51
2023/06/06 11:45:00;;;;;;;4.05;2.60;;;24.10;91.30;;;;;;5041671;28;20036;-50
2023/06/06 11:47:33;;;;;;;3.60;2.45;;;24.10;91.20;;;;;;5040830;28;20029;-48
2023/06/06 11:49:59;;;;;;;3.55;2.35;;;24.20;92.10;;;;;;5029423;28;20402;-50
2023/06/06 11:52:24;;;;;;;5.47;2.97;;;24.30;90.10;;;;;;5037671;28;20029;-49
2023/06/06 11:55:04;;;;;;;4.90;2.65;;;24.30;90.40;;;;;;5038726;28;20397;-51
2023/06/06 11:57:34;;;;;;;4.65;2.70;;;24.40;89.90;;;;;;5031488;28;20112;-52
2023/06/06 12:00:07;;;;;;;3.50;2.15;;;24.30;88.50;;;;;;5036188;28;20458;-48
2023/06/06 12:02:38;;;;;;;6.05;2.60;;;24.30;88.70;;;;;;5037306;28;20374;-49
2023/06/06 12:05:04;;;;;;;3.60;2.20;;;24.30;86.10;;;;;;5041721;28;20033;-49
2023/06/06 12:07:31;;;;;;;4.35;2.00;;;24.40;85.10;;;;;;5040375;28;20056;-51
2023/06/06 12:10:01;;;;;;;6.10;2.53;;;24.40;84.30;;;;;;5037621;28;20355;-53
2023/06/06 12:12:27;;;;;;;4.53;2.53;;;24.30;85.00;;;;;;5037442;28;20032;-49
2023/06/06 12:14:57;;;;;;;4.28;2.70;;;24.40;87.20;;;;;;5048665;28;20114;-48
2023/06/06 12:17:28;;;;;;;8.73;3.40;;;24.40;85.60;;;;;;5049457;28;20044;-50
2023/06/06 12:19:55;;;;;;;4.80;2.80;;;24.50;85.80;;;;;;5048742;28;20417;-48
2023/06/06 12:22:37;;;;;;;5.40;2.78;;;24.40;86.40;;;;;;5048968;28;20056;-50
2023/06/06 12:25:04;;;;;;;4.53;2.58;;;24.30;87.20;;;;;;5034160;28;20017;-48
2023/06/06 12:27:36;;;;;;;4.65;2.45;;;24.30;87.20;;;;;;5039792;28;20428;-49
2023/06/06 12:30:04;;;;;;;5.40;2.88;;;24.30;87.10;;;;;;5040726;28;20044;-50
2023/06/06 12:32:30;;;;;;;5.60;2.40;;;24.40;86.80;;;;;;5039720;28;20033;-52
2023/06/06 12:35:02;;;;;;;4.55;2.30;;;24.50;87.30;;;;;;5033803;28;20486;-50
2023/06/06 12:37:38;;;;;;;3.03;1.70;;;24.50;85.50;;;;;;5040357;28;20090;-52
2023/06/06 12:40:17;;;;;;;4.57;1.85;;;24.70;75.50;;;;;;5042354;28;20021;-47
2023/06/06 12:43:04;;;;;;;3.60;2.03;;;24.70;77.30;;;;;;5036796;28;20024;-48
2023/06/06 12:45:36;;;;;;;3.88;2.25;;;24.60;80.70;;;;;;5044858;28;20043;-48
2023/06/06 12:48:03;;;;;;;3.38;2.20;;;24.60;81.70;;;;;;5034050;28;20029;-48
2023/06/06 12:50:29;;;;;;;4.85;2.35;;;24.70;84.20;;;;;;5044975;28;20033;-46
2023/06/06 12:52:55;;;;;;;3.63;2.00;;;24.80;82.10;;;;;;5034406;28;20029;-47